This is the latest recevied weather packets stored in our database for station/object EB1HRW. If no packets are shown the sender has not sent any weather packets the latest 10 day(s).
| Time | Temp. | Humidity | Pressure | Rain* | Wind** | Luminosity | Snow |
|---|---|---|---|---|---|---|---|
| 1777892039 | 13.33° C | 69% | 1012.4 hPa | 0 mm | - | - | - |
| 1777889340 | 13.33° C | 68% | 1012.3 hPa | 0 mm | - | - | - |
| 1777888441 | 13.33° C | 70% | 1012.4 hPa | 0 mm | - | - | - |
| 1777887539 | 12.78° C | 71% | 1012.4 hPa | 0 mm | - | - | - |
| 1777886639 | 12.22° C | 74% | 1012.5 hPa | 0 mm | - | - | - |
| 1777885717 | 12.22° C | 73% | 1012.6 hPa | 0 mm | - | - | - |
| 1777884831 | 11.67° C | 78% | 1012.5 hPa | 0 mm | - | - | - |
| 1777883329 | 11.11° C | 80% | 1012.7 hPa | 0 mm | - | - | - |
| 1777882430 | 11.11° C | 81% | 1012.7 hPa | 0 mm | - | - | - |
| 1777881530 | 10.56° C | 82% | 1012.6 hPa | 0 mm | - | - | - |
| 1777880630 | 11.11° C | 82% | 1012.6 hPa | 0 mm | - | - | - |
| 1777879730 | 11.11° C | 83% | 1012.5 hPa | 0 mm | - | - | - |
| 1777878827 | 11.67° C | 83% | 1012.3 hPa | 0 mm | - | - | - |
| 1777877929 | 11.11° C | 84% | 1012.1 hPa | 0 mm | - | - | - |
| 1777877029 | 11.11° C | 84% | 1012 hPa | 0 mm | - | - | - |
| 1777876131 | 10.56° C | 84% | 1011.9 hPa | 0 mm | - | - | - |
| 1777874327 | 10.56° C | 84% | 1011.6 hPa | 0 mm | - | - | - |
| 1777873429 | 10.56° C | 84% | 1011.5 hPa | 0 mm | - | - | - |
| 1777872530 | 10.56° C | 84% | 1011.4 hPa | 0 mm | - | - | - |
| 1777871629 | 10.56° C | 84% | 1011.4 hPa | 0 mm | - | - | - |
| 1777870729 | 11.11° C | 84% | 1011.4 hPa | 0 mm | - | - | - |
| 1777869829 | 11.11° C | 84% | 1011.4 hPa | 0 mm | - | - | - |
| 1777868031 | 11.11° C | 84% | 1011.4 hPa | 0 mm | - | - | - |
| 1777867129 | 11.11° C | 84% | 1011.4 hPa | 0 mm | - | - | - |
| 1777866230 | 11.11° C | 84% | 1011.4 hPa | 0 mm | - | - | - |
* Rain latest hour (hover to see other rain measurements)
** Current wind speed in m/s (hover to see current wind gust speed)